Surfside, California
Current Conditions -  °F | °C
As of 3:58 PM on Saturday 25 Oct 2014 (Local Time) from KSLI Reporting Station
Clear Clear  
Wind Chill: 80°   Ceiling: Unl
Heat Index: 80°   Visibility: 10mi
Dew Point: 54°   Wind: 9mph
Humidity: 40%   Direction: 280°W
Pressure: 30"   Gusts: NA
Location:  33.73°N, 118.08°W
Report Text: KSLI 252258Z AUTO 28008KT 10SM CLR 27/12 A3000 RMK AO2 SLP162 T02670121
Loading
Personal Weather Stations






























Interactive Weather Map
Tropical Storm Tracking
New forecast layout! Learn more

10-Day Weather Forecast

Advertisements
Track Severe Weather on mobile